Time;durP1;ratioP1;P1;durP2;ratioP2;P2;SDS_P1;SDS_P2;PMS_P1;PMS_P2;Temp;Humidity;BMP_temperature;BMP_pressure;BME280_temperature;BME280_humidity;BME280_pressure;Samples;Min_cycle;Max_cycle;Signal;HPM_P1;HPM_P2
2022/04/23 00:01:00;;;;;;;47.38;20.60;;;;;;;;;;6265879;28;20052;-55
2022/04/23 00:04:01;;;;;;;44.28;22.58;;;;;;;;;;6261426;28;20482;-53
2022/04/23 00:07:01;;;;;;;44.60;23.08;;;;;;;;;;6262362;28;20041;-57
2022/04/23 00:10:02;;;;;;;46.33;23.60;;;;;;;;;;6261910;28;20049;-59
2022/04/23 00:13:04;;;;;;;46.90;23.88;;;;;;;;;;6262237;28;20059;-53
2022/04/23 00:16:05;;;;;;;51.08;23.02;;;;;;;;;;6263379;28;20071;-53
2022/04/23 00:19:06;;;;;;;42.20;20.80;;;;;;;;;;6262453;28;20087;-51
2022/04/23 00:22:06;;;;;;;42.88;22.00;;;;;;;;;;6261937;28;20106;-50
2022/04/23 00:25:07;;;;;;;48.85;22.20;;;;;;;;;;6263644;28;20148;-53
2022/04/23 00:28:10;;;;;;;42.83;21.33;;;;;;;;;;6265783;28;20058;-52
2022/04/23 00:31:10;;;;;;;43.60;20.90;;;;;;;;;;6263089;28;20111;-55
2022/04/23 00:34:12;;;;;;;47.10;21.33;;;;;;;;;;6262067;28;20484;-52
2022/04/23 00:37:14;;;;;;;48.10;21.77;;;;;;;;;;6259518;28;20041;-55
2022/04/23 00:40:17;;;;;;;46.67;21.17;;;;;;;;;;6263965;28;20385;-54
2022/04/23 00:43:27;;;;;;;45.92;21.15;;;;;;;;;;6263054;28;20508;-51
2022/04/23 00:46:27;;;;;;;43.17;20.50;;;;;;;;;;6260466;28;20064;-54
2022/04/23 00:49:28;;;;;;;43.97;21.65;;;;;;;;;;6261044;28;20052;-53
2022/04/23 00:52:29;;;;;;;44.97;21.25;;;;;;;;;;6261574;28;20053;-52
2022/04/23 00:55:31;;;;;;;40.22;19.90;;;;;;;;;;6260518;28;20058;-56
2022/04/23 00:58:32;;;;;;;40.13;19.23;;;;;;;;;;6262275;28;20072;-54
2022/04/23 01:01:34;;;;;;;41.03;19.55;;;;;;;;;;6263939;28;20051;-51
2022/04/23 01:04:35;;;;;;;38.10;18.55;;;;;;;;;;6260728;28;20614;-51
2022/04/23 01:07:43;;;;;;;41.20;19.50;;;;;;;;;;6261880;28;20049;-56
2022/04/23 01:10:44;;;;;;;41.25;19.75;;;;;;;;;;6262213;28;20711;-54
2022/04/23 01:13:45;;;;;;;38.72;20.23;;;;;;;;;;6263616;28;20140;-55
2022/04/23 01:16:47;;;;;;;40.40;20.38;;;;;;;;;;6265361;28;20134;-51
2022/04/23 01:19:47;;;;;;;45.33;22.30;;;;;;;;;;6266634;28;20498;-54
2022/04/23 01:22:48;;;;;;;44.83;22.35;;;;;;;;;;6266096;28;20293;-53
2022/04/23 01:25:53;;;;;;;43.85;22.98;;;;;;;;;;6263820;28;20141;-56
2022/04/23 01:28:55;;;;;;;45.17;22.13;;;;;;;;;;6266414;28;20210;-55
2022/04/23 01:31:56;;;;;;;45.65;22.25;;;;;;;;;;6265703;28;20132;-53
2022/04/23 01:34:57;;;;;;;49.28;23.58;;;;;;;;;;6264926;28;20061;-56
2022/04/23 01:37:57;;;;;;;48.70;22.60;;;;;;;;;;6267009;28;20040;-54
2022/04/23 01:40:58;;;;;;;43.30;21.67;;;;;;;;;;6265114;28;20048;-52
2022/04/23 01:43:59;;;;;;;46.05;21.38;;;;;;;;;;6263892;28;20395;-55
2022/04/23 01:47:00;;;;;;;41.97;22.63;;;;;;;;;;6264819;28;21130;-55
2022/04/23 01:50:00;;;;;;;43.80;21.90;;;;;;;;;;6260711;28;20049;-52
2022/04/23 01:53:02;;;;;;;41.60;21.77;;;;;;;;;;6266369;28;20499;-52
2022/04/23 01:56:03;;;;;;;41.72;21.08;;;;;;;;;;6265970;28;20071;-52
2022/04/23 01:59:03;;;;;;;40.15;20.58;;;;;;;;;;6266023;28;20037;-53
2022/04/23 02:02:04;;;;;;;41.25;20.63;;;;;;;;;;6265770;28;20087;-55
2022/04/23 02:05:05;;;;;;;40.60;20.42;;;;;;;;;;6258800;28;20175;-52
2022/04/23 02:08:08;;;;;;;45.80;22.70;;;;;;;;;;6261479;28;20061;-53
2022/04/23 02:11:09;;;;;;;46.42;23.00;;;;;;;;;;6265851;28;20049;-52
2022/04/23 02:14:09;;;;;;;46.88;25.10;;;;;;;;;;6264055;28;20127;-54
2022/04/23 02:17:10;;;;;;;60.45;29.75;;;;;;;;;;6265392;28;20045;-55
2022/04/23 02:20:16;;;;;;;64.95;31.17;;;;;;;;;;6265046;28;20044;-52
2022/04/23 02:23:16;;;;;;;54.38;26.60;;;;;;;;;;6265485;28;20145;-52
2022/04/23 02:26:17;;;;;;;52.10;24.50;;;;;;;;;;6263615;28;20048;-55
2022/04/23 02:29:17;;;;;;;53.90;22.60;;;;;;;;;;6266197;28;20049;-53
2022/04/23 02:32:18;;;;;;;53.67;22.63;;;;;;;;;;6265931;28;20540;-51
2022/04/23 02:35:22;;;;;;;51.78;22.88;;;;;;;;;;6265581;28;20049;-53
2022/04/23 02:38:22;;;;;;;47.15;22.70;;;;;;;;;;6264278;28;20412;-54
2022/04/23 02:41:23;;;;;;;42.80;20.40;;;;;;;;;;6264198;28;20041;-55
2022/04/23 02:44:23;;;;;;;39.10;19.73;;;;;;;;;;6264366;28;20102;-52
2022/04/23 02:47:24;;;;;;;43.78;19.85;;;;;;;;;;6265545;28;20048;-55
2022/04/23 02:50:38;;;;;;;45.88;19.83;;;;;;;;;;6263809;28;20754;-56
2022/04/23 02:53:39;;;;;;;43.42;20.38;;;;;;;;;;6260855;28;20075;-52
2022/04/23 02:56:39;;;;;;;41.55;20.42;;;;;;;;;;6263622;28;20041;-52
2022/04/23 02:59:40;;;;;;;42.67;21.02;;;;;;;;;;6264804;28;20700;-53
2022/04/23 03:02:40;;;;;;;42.78;20.10;;;;;;;;;;6263515;28;20520;-52
2022/04/23 03:05:42;;;;;;;41.45;19.67;;;;;;;;;;6262823;28;20591;-53
2022/04/23 03:08:43;;;;;;;48.47;19.60;;;;;;;;;;6262282;28;20690;-54
2022/04/23 03:11:44;;;;;;;41.15;19.25;;;;;;;;;;6261931;28;20063;-53
2022/04/23 03:14:45;;;;;;;42.05;19.55;;;;;;;;;;6261116;28;20618;-53
2022/04/23 03:17:47;;;;;;;36.90;17.83;;;;;;;;;;6265502;28;20138;-55
2022/04/23 03:20:47;;;;;;;51.38;23.58;;;;;;;;;;6264821;28;20156;-52
2022/04/23 03:23:48;;;;;;;55.90;26.73;;;;;;;;;;6261220;28;20049;-52
2022/04/23 03:26:49;;;;;;;46.40;20.90;;;;;;;;;;6264572;28;20124;-52
2022/04/23 03:29:49;;;;;;;44.92;20.30;;;;;;;;;;6264975;28;20048;-51
2022/04/23 03:32:50;;;;;;;54.05;23.70;;;;;;;;;;6262687;28;20057;-52
2022/04/23 03:35:51;;;;;;;56.13;25.95;;;;;;;;;;6264759;28;20091;-53
2022/04/23 03:38:51;;;;;;;61.15;26.73;;;;;;;;;;6264757;28;20412;-54
2022/04/23 03:41:52;;;;;;;53.55;22.95;;;;;;;;;;6266166;28;20078;-51
2022/04/23 03:44:52;;;;;;;59.08;25.33;;;;;;;;;;6264428;28;20080;-52
2022/04/23 03:47:54;;;;;;;73.43;29.95;;;;;;;;;;6264502;28;20049;-53
2022/04/23 03:50:55;;;;;;;88.13;33.15;;;;;;;;;;6264527;28;20071;-52
2022/04/23 03:53:55;;;;;;;100.35;35.40;;;;;;;;;;6261832;28;20444;-53
2022/04/23 03:56:56;;;;;;;118.10;38.90;;;;;;;;;;6264106;28;20165;-55
2022/04/23 03:59:57;;;;;;;107.55;36.90;;;;;;;;;;6263749;28;20278;-51
2022/04/23 04:02:57;;;;;;;129.75;42.45;;;;;;;;;;6263963;28;20049;-51
2022/04/23 04:05:59;;;;;;;155.20;46.17;;;;;;;;;;6262645;28;20048;-51
2022/04/23 04:09:00;;;;;;;112.43;37.80;;;;;;;;;;6264387;28;20419;-50
2022/04/23 04:12:01;;;;;;;85.53;33.92;;;;;;;;;;6262693;28;20049;-55
2022/04/23 04:15:03;;;;;;;63.38;28.40;;;;;;;;;;6263753;28;20053;-51
2022/04/23 04:18:05;;;;;;;48.20;21.02;;;;;;;;;;6263221;28;21834;-53
2022/04/23 04:21:07;;;;;;;49.58;21.98;;;;;;;;;;6259304;28;20074;-52
2022/04/23 04:24:07;;;;;;;63.97;26.92;;;;;;;;;;6261191;28;20119;-51
2022/04/23 04:27:08;;;;;;;83.78;32.22;;;;;;;;;;6263830;28;20127;-52
2022/04/23 04:30:11;;;;;;;88.05;32.92;;;;;;;;;;6262979;28;20463;-53
2022/04/23 04:33:11;;;;;;;;;;;;;;;;;;6263379;28;20065;-53
2022/04/23 04:36:12;;;;;;;60.28;25.02;;;;;;;;;;6261813;28;19966;-50
2022/04/23 04:39:13;;;;;;;76.68;30.70;;;;;;;;;;6262924;28;20090;-54
2022/04/23 04:42:14;;;;;;;85.95;30.35;;;;;;;;;;6264891;28;20106;-54
2022/04/23 04:45:15;;;;;;;79.00;31.23;;;;;;;;;;6262154;28;20041;-55
2022/04/23 04:48:16;;;;;;;67.05;28.85;;;;;;;;;;6267005;28;20077;-53
2022/04/23 04:51:16;;;;;;;81.45;31.40;;;;;;;;;;6269202;28;20088;-52
2022/04/23 04:54:18;;;;;;;68.75;29.02;;;;;;;;;;6266425;28;20052;-51
2022/04/23 04:57:18;;;;;;;74.32;30.27;;;;;;;;;;6267676;28;20053;-51
2022/04/23 05:00:19;;;;;;;83.75;32.42;;;;;;;;;;6269425;28;20054;-50
2022/04/23 05:03:19;;;;;;;76.47;31.67;;;;;;;;;;6269503;28;20156;-50
2022/04/23 05:06:20;;;;;;;66.85;28.02;;;;;;;;;;6268672;28;20140;-50
2022/04/23 05:09:21;;;;;;;69.47;31.30;;;;;;;;;;6271390;28;20511;-49
2022/04/23 05:12:22;;;;;;;79.50;31.80;;;;;;;;;;6269618;28;20140;-50
2022/04/23 05:15:22;;;;;;;65.32;28.63;;;;;;;;;;6270257;28;20049;-50
2022/04/23 05:18:23;;;;;;;60.35;28.88;;;;;;;;;;6270656;28;20052;-50
2022/04/23 05:21:23;;;;;;;72.15;31.98;;;;;;;;;;6269992;28;20049;-49
2022/04/23 05:24:24;;;;;;;67.38;31.75;;;;;;;;;;6269425;28;20049;-51
2022/04/23 05:27:26;;;;;;;62.53;28.35;;;;;;;;;;6271039;28;20127;-50
2022/04/23 05:30:26;;;;;;;67.00;32.13;;;;;;;;;;6271392;28;20054;-49
2022/04/23 05:33:27;;;;;;;71.05;33.10;;;;;;;;;;6269786;28;20949;-55
2022/04/23 05:36:27;;;;;;;71.88;33.78;;;;;;;;;;6269715;28;20045;-53
2022/04/23 05:39:28;;;;;;;76.30;33.13;;;;;;;;;;6270901;28;20077;-52
2022/04/23 05:42:29;;;;;;;72.90;32.30;;;;;;;;;;6269621;28;20389;-54
2022/04/23 05:45:30;;;;;;;60.13;27.25;;;;;;;;;;6269789;28;20045;-49
2022/04/23 05:48:30;;;;;;;65.63;28.48;;;;;;;;;;6270898;28;20435;-56
2022/04/23 05:51:31;;;;;;;63.28;28.77;;;;;;;;;;6270409;28;20134;-55
2022/04/23 05:54:31;;;;;;;58.78;26.25;;;;;;;;;;6268545;28;20053;-54
2022/04/23 05:57:32;;;;;;;48.55;23.73;;;;;;;;;;6254332;28;20059;-52
2022/04/23 06:00:33;;;;;;;58.15;27.50;;;;;;;;;;6267572;28;20103;-53
2022/04/23 06:03:34;;;;;;;68.05;29.63;;;;;;;;;;6267447;28;20461;-57
2022/04/23 06:06:34;;;;;;;58.00;27.33;;;;;;;;;;6267323;28;20049;-51
2022/04/23 06:09:35;;;;;;;52.15;23.73;;;;;;;;;;6269340;28;20132;-55
2022/04/23 06:12:35;;;;;;;48.28;23.00;;;;;;;;;;6265959;28;20140;-51
2022/04/23 06:15:36;;;;;;;39.55;19.85;;;;;;;;;;6267652;28;20137;-54
2022/04/23 06:18:37;;;;;;;43.47;20.33;;;;;;;;;;6269332;28;20477;-52
2022/04/23 06:21:37;;;;;;;43.15;19.88;;;;;;;;;;6267568;28;20239;-50
2022/04/23 06:24:38;;;;;;;41.53;21.42;;;;;;;;;;6266154;28;20082;-51
2022/04/23 06:27:38;;;;;;;44.45;23.35;;;;;;;;;;6266891;28;20072;-54
2022/04/23 06:30:39;;;;;;;41.30;21.42;;;;;;;;;;6269109;28;20492;-53
2022/04/23 06:33:42;;;;;;;44.67;21.63;;;;;;;;;;6263859;28;20057;-57
2022/04/23 06:36:42;;;;;;;41.72;19.80;;;;;;;;;;6267456;28;20048;-51
2022/04/23 06:39:43;;;;;;;38.47;18.83;;;;;;;;;;6267850;28;20101;-52
2022/04/23 06:42:44;;;;;;;35.60;17.83;;;;;;;;;;6266240;28;20056;-47
2022/04/23 06:45:44;;;;;;;34.42;17.27;;;;;;;;;;6267522;28;20072;-48
2022/04/23 06:48:45;;;;;;;30.38;15.77;;;;;;;;;;6267997;28;20510;-48
2022/04/23 06:51:45;;;;;;;40.40;18.67;;;;;;;;;;6266225;28;20135;-55
2022/04/23 06:54:46;;;;;;;43.90;20.30;;;;;;;;;;6265841;28;20053;-49
2022/04/23 06:57:47;;;;;;;43.47;19.90;;;;;;;;;;6268432;28;20053;-48
2022/04/23 07:00:47;;;;;;;36.85;19.00;;;;;;;;;;6269606;28;20518;-48
2022/04/23 07:03:48;;;;;;;35.83;17.45;;;;;;;;;;6265995;28;20045;-51
2022/04/23 07:06:48;;;;;;;36.67;16.98;;;;;;;;;;6268376;28;20060;-48
2022/04/23 07:09:49;;;;;;;33.90;16.65;;;;;;;;;;6268542;28;20464;-49
2022/04/23 07:12:53;;;;;;;32.88;16.13;;;;;;;;;;6264749;28;20041;-49
2022/04/23 07:15:53;;;;;;;28.05;14.23;;;;;;;;;;6265265;28;20048;-49
2022/04/23 07:18:54;;;;;;;35.60;15.93;;;;;;;;;;6267530;28;20048;-48
2022/04/23 07:21:54;;;;;;;40.10;17.48;;;;;;;;;;6267837;28;20508;-48
2022/04/23 07:24:55;;;;;;;33.97;16.02;;;;;;;;;;6266649;28;20052;-47
2022/04/23 07:27:56;;;;;;;26.00;12.90;;;;;;;;;;6268267;28;20140;-48
2022/04/23 07:30:56;;;;;;;21.98;11.23;;;;;;;;;;6268566;28;20045;-49
2022/04/23 07:37:28;;;;;;;17.50;9.15;;;;;;;;;;6266850;28;20049;-48
2022/04/23 07:40:29;;;;;;;;;;;;;;;;;;6268677;28;20080;-48
2022/04/23 07:43:29;;;;;;;16.20;8.93;;;;;;;;;;6267173;28;19928;-48
2022/04/23 07:46:30;;;;;;;15.98;9.05;;;;;;;;;;6266470;28;20045;-48
2022/04/23 07:49:31;;;;;;;13.95;7.95;;;;;;;;;;6266656;28;20065;-47
2022/04/23 07:52:35;;;;;;;13.90;7.93;;;;;;;;;;6268320;28;20063;-49
2022/04/23 07:55:36;;;;;;;14.48;7.70;;;;;;;;;;6265489;28;20060;-48
2022/04/23 07:58:37;;;;;;;14.23;6.93;;;;;;;;;;6266631;28;20056;-49
2022/04/23 08:01:38;;;;;;;13.57;8.25;;;;;;;;;;6268189;28;20040;-48
2022/04/23 08:04:38;;;;;;;17.00;9.98;;;;;;;;;;6265039;28;20134;-49
2022/04/23 08:07:39;;;;;;;12.07;6.72;;;;;;;;;;6266847;28;20045;-49
2022/04/23 08:10:40;;;;;;;12.55;6.55;;;;;;;;;;6264728;28;20447;-49
2022/04/23 08:13:40;;;;;;;12.50;6.60;;;;;;;;;;6264205;28;20052;-61
2022/04/23 08:16:42;;;;;;;12.55;7.22;;;;;;;;;;6263399;28;20059;-49
2022/04/23 08:19:42;;;;;;;11.73;7.32;;;;;;;;;;6262510;28;20096;-47
2022/04/23 08:22:43;;;;;;;10.57;6.78;;;;;;;;;;6268092;28;20045;-48
2022/04/23 08:25:45;;;;;;;10.68;6.20;;;;;;;;;;6268261;28;20049;-49
2022/04/23 08:32:05;;;;;;;13.13;6.40;;;;;;;;;;6269346;28;20099;-50
2022/04/23 08:35:06;;;;;;;13.02;6.90;;;;;;;;;;6264345;28;20112;-50
2022/04/23 08:38:08;;;;;;;11.45;6.30;;;;;;;;;;6266883;28;20083;-48
2022/04/23 08:41:10;;;;;;;8.65;5.88;;;;;;;;;;6268813;28;20041;-49
2022/04/23 08:44:10;;;;;;;12.30;7.00;;;;;;;;;;6267934;28;20064;-48
2022/04/23 08:47:12;;;;;;;12.10;6.32;;;;;;;;;;6263081;28;20043;-48
2022/04/23 08:50:13;;;;;;;12.55;7.30;;;;;;;;;;6267054;28;20045;-47
2022/04/23 08:53:18;;;;;;;14.18;7.68;;;;;;;;;;6264784;28;20052;-48
2022/04/23 08:56:19;;;;;;;12.90;7.35;;;;;;;;;;6264646;28;20099;-49
2022/04/23 08:59:20;;;;;;;12.93;7.50;;;;;;;;;;6265536;28;20083;-50
2022/04/23 09:02:21;;;;;;;12.52;7.95;;;;;;;;;;6267370;28;20069;-49
2022/04/23 09:05:24;;;;;;;15.80;8.50;;;;;;;;;;6267649;28;20045;-49
2022/04/23 09:08:29;;;;;;;12.15;6.43;;;;;;;;;;6266057;28;20115;-49
2022/04/23 09:11:36;;;;;;;12.45;6.93;;;;;;;;;;6269025;28;20392;-49
2022/04/23 09:14:37;;;;;;;16.17;6.35;;;;;;;;;;6266114;28;20049;-51
2022/04/23 09:24:10;;;;;;;12.80;7.68;;;;;;;;;;6265841;28;20634;-48
2022/04/23 09:27:11;;;;;;;12.88;7.40;;;;;;;;;;6265264;28;20084;-48
2022/04/23 09:30:13;;;;;;;12.00;7.35;;;;;;;;;;6279967;28;20052;-48
2022/04/23 09:33:14;;;;;;;14.25;7.82;;;;;;;;;;6266368;28;20061;-48
2022/04/23 09:36:15;;;;;;;13.30;8.32;;;;;;;;;;6266583;28;20049;-50
2022/04/23 09:39:33;;;;;;;24.30;8.20;;;;;;;;;;6265874;28;20045;-48
2022/04/23 09:42:34;;;;;;;11.23;7.55;;;;;;;;;;6263745;28;20686;-49
2022/04/23 09:45:41;;;;;;;11.25;7.00;;;;;;;;;;6267290;28;20049;-49
2022/04/23 09:48:43;;;;;;;11.50;7.30;;;;;;;;;;6265494;28;20064;-49
2022/04/23 09:51:59;;;;;;;12.23;7.60;;;;;;;;;;6267415;28;20064;-48
2022/04/23 09:55:02;;;;;;;13.25;7.68;;;;;;;;;;6267070;28;20485;-48
2022/04/23 09:58:07;;;;;;;11.65;7.70;;;;;;;;;;6264566;28;20049;-50
2022/04/23 10:01:08;;;;;;;12.32;7.35;;;;;;;;;;6263563;28;20052;-49
2022/04/23 10:04:12;;;;;;;10.87;7.50;;;;;;;;;;6265321;28;20036;-48
2022/04/23 10:07:17;;;;;;;10.02;6.47;;;;;;;;;;6264116;28;20049;-50
2022/04/23 10:10:18;;;;;;;11.95;7.35;;;;;;;;;;6265159;28;20118;-48
2022/04/23 10:13:22;;;;;;;14.00;7.70;;;;;;;;;;6265612;28;20049;-48
2022/04/23 10:16:23;;;;;;;12.35;7.32;;;;;;;;;;6265414;28;20122;-49
2022/04/23 10:19:25;;;;;;;11.35;7.55;;;;;;;;;;6263451;28;20513;-49
2022/04/23 10:22:37;;;;;;;11.27;7.93;;;;;;;;;;6264061;28;20076;-50
2022/04/23 10:26:07;;;;;;;13.82;8.13;;;;;;;;;;6265192;28;20051;-49
2022/04/23 10:29:15;;;;;;;12.68;7.63;;;;;;;;;;6260130;28;20076;-49
2022/04/23 10:32:16;;;;;;;12.95;8.43;;;;;;;;;;6262916;28;20151;-49
2022/04/23 10:35:17;;;;;;;12.93;8.38;;;;;;;;;;6265844;28;20045;-49
2022/04/23 10:38:21;;;;;;;11.85;7.90;;;;;;;;;;6266460;28;20274;-49
2022/04/23 10:41:24;;;;;;;12.15;7.72;;;;;;;;;;6267084;28;20049;-49
2022/04/23 10:44:30;;;;;;;12.07;8.32;;;;;;;;;;6262737;28;20048;-48
2022/04/23 10:47:39;;;;;;;13.07;7.40;;;;;;;;;;6265710;28;20480;-50
2022/04/23 10:50:58;;;;;;;11.63;7.78;;;;;;;;;;6266574;28;20053;-48
2022/04/23 10:53:58;;;;;;;13.07;7.68;;;;;;;;;;6265208;28;20080;-49
2022/04/23 10:57:07;;;;;;;10.60;7.50;;;;;;;;;;6259734;28;20851;-49
2022/04/23 11:00:12;;;;;;;11.18;8.05;;;;;;;;;;6263991;28;20465;-48
2022/04/23 11:03:12;;;;;;;11.55;7.57;;;;;;;;;;6263442;28;20044;-48
2022/04/23 11:12:51;;;;;;;14.80;7.65;;;;;;;;;;6262041;28;20067;-49
2022/04/23 11:16:13;;;;;;;11.63;7.75;;;;;;;;;;6263742;28;20765;-48
2022/04/23 11:19:14;;;;;;;12.55;8.05;;;;;;;;;;6258609;28;20140;-53
2022/04/23 11:22:15;;;;;;;10.88;7.50;;;;;;;;;;6263499;28;20437;-49
2022/04/23 11:25:16;;;;;;;12.48;8.32;;;;;;;;;;6263984;28;20060;-48
2022/04/23 11:28:22;;;;;;;12.88;7.95;;;;;;;;;;6262349;28;20080;-48
2022/04/23 11:31:22;;;;;;;13.13;9.55;;;;;;;;;;6263230;28;20131;-48
2022/04/23 11:34:23;;;;;;;11.88;8.02;;;;;;;;;;6264220;28;20067;-48
2022/04/23 11:37:43;;;;;;;11.63;7.65;;;;;;;;;;6259361;28;20060;-52
2022/04/23 11:40:43;;;;;;;10.85;7.03;;;;;;;;;;6257410;28;20045;-50
2022/04/23 11:43:44;;;;;;;8.75;6.60;;;;;;;;;;6261505;28;20056;-48
2022/04/23 11:46:47;;;;;;;11.20;7.60;;;;;;;;;;6253865;28;20059;-54
2022/04/23 11:49:48;;;;;;;11.50;7.68;;;;;;;;;;6252669;28;20594;-48
2022/04/23 11:52:59;;;;;;;11.55;7.88;;;;;;;;;;6251067;28;20074;-48
2022/04/23 11:56:00;;;;;;;14.40;8.35;;;;;;;;;;6246127;28;21395;-49
2022/04/23 11:59:06;;;;;;;13.80;8.15;;;;;;;;;;6252020;28;20045;-49
2022/04/23 12:02:23;;;;;;;11.57;7.93;;;;;;;;;;6248704;28;20064;-48
2022/04/23 12:05:34;;;;;;;12.02;7.40;;;;;;;;;;6253306;28;20075;-49
2022/04/23 12:08:35;;;;;;;11.20;7.72;;;;;;;;;;6255572;28;20060;-48
2022/04/23 12:11:36;;;;;;;10.77;6.97;;;;;;;;;;6257205;28;20106;-48
2022/04/23 12:14:45;;;;;;;12.70;6.93;;;;;;;;;;6253722;28;20188;-48
2022/04/23 12:17:54;;;;;;;10.75;7.10;;;;;;;;;;6258701;28;20064;-48
2022/04/23 12:21:07;;;;;;;12.55;8.57;;;;;;;;;;6257023;28;20068;-49
2022/04/23 12:24:08;;;;;;;10.68;7.47;;;;;;;;;;6251596;28;20059;-48
2022/04/23 12:27:09;;;;;;;10.35;7.15;;;;;;;;;;6254312;28;20053;-52
2022/04/23 12:43:34;;;;;;;9.60;6.22;;;;;;;;;;6257561;28;20052;-49
2022/04/23 12:46:52;;;;;;;13.43;6.60;;;;;;;;;;6251199;28;20044;-51
2022/04/23 12:49:56;;;;;;;11.75;6.70;;;;;;;;;;6247775;28;20068;-49
2022/04/23 12:52:56;;;;;;;9.38;6.20;;;;;;;;;;6254241;28;20072;-50
2022/04/23 12:55:57;;;;;;;8.07;5.78;;;;;;;;;;6253687;28;20148;-49
2022/04/23 12:58:57;;;;;;;10.90;7.45;;;;;;;;;;6255632;28;20979;-49
2022/04/23 13:01:58;;;;;;;10.10;6.95;;;;;;;;;;6256829;28;20359;-48
2022/04/23 13:04:59;;;;;;;10.38;7.28;;;;;;;;;;6249209;28;20460;-52
2022/04/23 13:11:25;;;;;;;11.85;7.00;;;;;;;;;;6260845;28;20056;-49
2022/04/23 13:14:26;;;;;;;10.52;6.75;;;;;;;;;;6259973;28;20619;-49
2022/04/23 13:17:27;;;;;;;12.30;7.10;;;;;;;;;;6260466;28;20094;-50
2022/04/23 13:20:27;;;;;;;10.90;6.60;;;;;;;;;;6258029;28;20047;-56
2022/04/23 13:23:28;;;;;;;11.60;8.18;;;;;;;;;;6259590;28;20040;-49
2022/04/23 13:26:29;;;;;;;11.05;7.78;;;;;;;;;;6259136;28;20127;-49
2022/04/23 13:29:30;;;;;;;11.65;8.48;;;;;;;;;;6260335;28;20049;-50
2022/04/23 13:32:32;;;;;;;10.43;7.85;;;;;;;;;;6260587;28;20096;-49
2022/04/23 13:35:33;;;;;;;12.45;8.82;;;;;;;;;;6258727;28;20144;-48
2022/04/23 13:38:34;;;;;;;12.80;9.30;;;;;;;;;;6259564;28;20053;-49
2022/04/23 13:41:34;;;;;;;11.27;8.68;;;;;;;;;;6258429;28;20077;-49
2022/04/23 13:44:36;;;;;;;12.70;9.18;;;;;;;;;;6254957;28;20076;-46
2022/04/23 13:47:36;;;;;;;12.97;9.10;;;;;;;;;;6253034;28;21164;-47
2022/04/23 13:50:38;;;;;;;12.15;8.40;;;;;;;;;;6254238;28;20136;-48
2022/04/23 13:53:39;;;;;;;;;;;;;;;;;;6258342;28;20045;-47
2022/04/23 13:56:41;;;;;;;13.68;9.63;;;;;;;;;;6259516;28;19998;-48
2022/04/23 13:59:42;;;;;;;15.93;10.88;;;;;;;;;;6255470;28;20140;-47
2022/04/23 14:12:43;;;;;;;13.15;10.63;;;;;;;;;;6258830;28;20053;-47
2022/04/23 14:15:44;;;;;;;17.38;10.52;;;;;;;;;;6257878;28;20080;-48
2022/04/23 14:18:44;;;;;;;16.67;11.38;;;;;;;;;;6259684;28;20053;-48
2022/04/23 14:21:45;;;;;;;15.52;9.52;;;;;;;;;;6255352;28;20056;-48
2022/04/23 14:24:46;;;;;;;13.10;9.68;;;;;;;;;;6252350;28;20057;-47
2022/04/23 14:27:47;;;;;;;13.57;10.13;;;;;;;;;;6255244;28;20057;-47
2022/04/23 14:30:50;;;;;;;13.07;9.65;;;;;;;;;;6252980;28;20073;-47
2022/04/23 14:33:50;;;;;;;13.05;9.18;;;;;;;;;;6252021;28;20068;-47
2022/04/23 14:36:51;;;;;;;12.93;9.13;;;;;;;;;;6257130;28;20044;-47
2022/04/23 14:39:51;;;;;;;11.85;9.13;;;;;;;;;;6256107;28;20045;-47
2022/04/23 14:42:54;;;;;;;14.35;10.20;;;;;;;;;;6253388;28;20049;-48
2022/04/23 14:45:55;;;;;;;13.93;9.48;;;;;;;;;;6252669;28;20052;-49
2022/04/23 14:48:55;;;;;;;12.23;8.95;;;;;;;;;;6253614;28;20955;-52
2022/04/23 14:55:16;;;;;;;11.38;8.82;;;;;;;;;;6252249;28;20506;-50
2022/04/23 14:58:17;;;;;;;11.98;8.98;;;;;;;;;;6253652;28;20055;-52
2022/04/23 15:01:17;;;;;;;11.37;8.60;;;;;;;;;;6252095;28;20061;-50
2022/04/23 15:04:19;;;;;;;11.88;8.73;;;;;;;;;;6251191;28;20053;-52
2022/04/23 15:07:20;;;;;;;12.25;8.60;;;;;;;;;;6254606;28;20119;-48
2022/04/23 15:10:20;;;;;;;11.38;8.35;;;;;;;;;;6254763;28;20131;-48
2022/04/23 15:13:21;;;;;;;11.57;8.32;;;;;;;;;;6254019;28;20045;-50
2022/04/23 15:16:23;;;;;;;11.18;8.80;;;;;;;;;;6251288;28;20136;-54
2022/04/23 15:19:25;;;;;;;12.55;8.25;;;;;;;;;;6253003;28;20098;-48
2022/04/23 15:22:26;;;;;;;12.77;8.63;;;;;;;;;;6256891;28;20064;-48
2022/04/23 15:25:27;;;;;;;10.52;8.32;;;;;;;;;;6252854;28;20040;-48
2022/04/23 15:28:27;;;;;;;12.82;9.13;;;;;;;;;;6256123;28;20535;-51
2022/04/23 15:31:29;;;;;;;14.27;9.23;;;;;;;;;;6255848;28;20411;-50
2022/04/23 15:34:29;;;;;;;12.30;8.88;;;;;;;;;;6253843;28;20071;-49
2022/04/23 15:37:30;;;;;;;15.77;9.65;;;;;;;;;;6256241;28;20079;-49
2022/04/23 15:40:31;;;;;;;12.70;8.27;;;;;;;;;;6255571;28;20049;-50
2022/04/23 15:43:31;;;;;;;12.68;8.20;;;;;;;;;;6251696;28;20396;-50
2022/04/23 15:46:32;;;;;;;16.10;9.88;;;;;;;;;;6253545;28;20329;-50
2022/04/23 15:49:32;;;;;;;15.10;10.32;;;;;;;;;;6256005;28;20041;-48
2022/04/23 15:52:33;;;;;;;13.80;8.50;;;;;;;;;;6258157;28;20510;-49
2022/04/23 15:55:34;;;;;;;12.45;8.57;;;;;;;;;;6255251;28;20645;-50
2022/04/23 15:58:35;;;;;;;13.40;9.30;;;;;;;;;;6259071;28;20049;-49
2022/04/23 16:01:35;;;;;;;13.60;9.10;;;;;;;;;;6257263;28;20527;-48
2022/04/23 16:04:36;;;;;;;14.93;10.02;;;;;;;;;;6254674;28;20053;-49
2022/04/23 16:07:37;;;;;;;16.05;10.25;;;;;;;;;;6254503;28;20052;-48
2022/04/23 16:10:39;;;;;;;14.10;9.27;;;;;;;;;;6256597;28;20542;-49
2022/04/23 16:13:39;;;;;;;17.10;10.80;;;;;;;;;;6253752;28;20650;-50
2022/04/23 16:16:40;;;;;;;13.85;9.35;;;;;;;;;;6256408;28;20111;-49
2022/04/23 16:19:41;;;;;;;13.63;9.98;;;;;;;;;;6257213;28;20924;-49
2022/04/23 16:22:42;;;;;;;13.70;9.90;;;;;;;;;;6256031;28;20061;-49
2022/04/23 16:25:44;;;;;;;14.85;11.05;;;;;;;;;;6254455;28;20103;-51
2022/04/23 16:28:44;;;;;;;14.13;9.73;;;;;;;;;;6257924;28;20049;-49
2022/04/23 16:31:45;;;;;;;15.55;11.48;;;;;;;;;;6257522;28;20359;-50
2022/04/23 16:34:45;;;;;;;16.48;11.93;;;;;;;;;;6254954;28;20276;-51
2022/04/23 16:47:44;;;;;;;14.10;10.13;;;;;;;;;;6259557;28;20102;-48
2022/04/23 16:50:45;;;;;;;16.70;11.37;;;;;;;;;;6263075;28;20053;-50
2022/04/23 16:53:45;;;;;;;13.98;9.60;;;;;;;;;;6260013;28;20056;-51
2022/04/23 16:56:46;;;;;;;17.15;11.95;;;;;;;;;;6260408;28;20055;-54
2022/04/23 16:59:47;;;;;;;18.98;12.45;;;;;;;;;;6262188;28;20057;-48
2022/04/23 17:02:47;;;;;;;18.03;10.77;;;;;;;;;;6261186;28;20126;-48
2022/04/23 17:05:48;;;;;;;19.63;11.65;;;;;;;;;;6258966;28;20106;-51
2022/04/23 17:08:49;;;;;;;19.05;13.27;;;;;;;;;;6260933;28;20087;-50
2022/04/23 17:11:50;;;;;;;19.45;11.88;;;;;;;;;;6262550;28;20049;-49
2022/04/23 17:14:50;;;;;;;17.70;11.73;;;;;;;;;;6259033;28;20049;-50
2022/04/23 17:17:51;;;;;;;18.60;12.85;;;;;;;;;;6260437;28;20712;-49
2022/04/23 17:20:51;;;;;;;20.85;12.68;;;;;;;;;;6261737;28;20049;-50
2022/04/23 17:23:52;;;;;;;19.15;12.73;;;;;;;;;;6260390;28;20048;-49
2022/04/23 17:26:55;;;;;;;19.48;12.40;;;;;;;;;;6257263;28;20053;-50
2022/04/23 17:29:56;;;;;;;17.48;12.65;;;;;;;;;;6259625;28;20088;-50
2022/04/23 17:32:56;;;;;;;21.10;12.73;;;;;;;;;;6260886;28;20522;-49
2022/04/23 17:35:57;;;;;;;18.77;12.95;;;;;;;;;;6258247;28;20075;-50
2022/04/23 17:38:58;;;;;;;19.95;14.20;;;;;;;;;;6260130;28;20044;-53
2022/04/23 17:41:59;;;;;;;22.27;14.70;;;;;;;;;;6260293;28;20142;-49
2022/04/23 17:45:00;;;;;;;20.80;15.48;;;;;;;;;;6258945;28;20115;-49
2022/04/23 17:48:01;;;;;;;22.13;15.10;;;;;;;;;;6258651;28;20053;-55
2022/04/23 17:51:04;;;;;;;21.73;15.45;;;;;;;;;;6257480;28;20459;-49
2022/04/23 17:54:05;;;;;;;27.17;18.02;;;;;;;;;;6257666;28;20079;-52
2022/04/23 17:57:06;;;;;;;30.15;18.83;;;;;;;;;;6258195;28;20044;-47
2022/04/23 18:10:06;;;;;;;74.85;38.60;;;;;;;;;;6256637;28;20067;-52
2022/04/23 18:13:06;;;;;;;55.45;30.42;;;;;;;;;;6258103;28;20049;-54
2022/04/23 18:16:08;;;;;;;54.63;30.38;;;;;;;;;;6255723;28;20052;-48
2022/04/23 18:19:09;;;;;;;61.80;32.67;;;;;;;;;;6255049;28;20052;-49
2022/04/23 18:22:10;;;;;;;72.23;37.10;;;;;;;;;;6257553;28;20567;-48
2022/04/23 18:25:11;;;;;;;83.00;40.70;;;;;;;;;;6254750;28;20060;-48
2022/04/23 18:28:11;;;;;;;79.85;39.80;;;;;;;;;;6255405;28;20159;-46
2022/04/23 18:31:12;;;;;;;76.47;40.08;;;;;;;;;;6254541;28;20064;-48
2022/04/23 18:34:12;;;;;;;82.35;38.38;;;;;;;;;;6252466;28;20091;-50
2022/04/23 18:37:13;;;;;;;75.30;38.25;;;;;;;;;;6257134;28;20060;-49
2022/04/23 18:40:16;;;;;;;93.22;43.30;;;;;;;;;;6254909;28;20055;-48
2022/04/23 18:43:16;;;;;;;114.47;49.90;;;;;;;;;;6257274;28;21690;-47
2022/04/23 18:46:18;;;;;;;110.88;48.78;;;;;;;;;;6254108;28;20175;-49
2022/04/23 18:49:18;;;;;;;114.13;49.13;;;;;;;;;;6256076;28;20056;-48
2022/04/23 18:52:19;;;;;;;105.72;46.22;;;;;;;;;;6258156;28;20292;-47
2022/04/23 18:55:20;;;;;;;96.82;44.95;;;;;;;;;;6257171;28;20182;-48